createdAt,value
2023-02-03T00:01:51.189Z,22.43
2023-02-03T00:04:18.203Z,23.17
2023-02-03T00:06:45.281Z,18.53
2023-02-03T00:09:12.348Z,16.00
2023-02-03T00:11:39.089Z,15.10
2023-02-03T00:14:07.984Z,12.93
2023-02-03T00:16:35.931Z,12.60
2023-02-03T00:19:03.477Z,17.23
2023-02-03T00:21:30.259Z,12.83
2023-02-03T00:23:57.309Z,11.70
2023-02-03T00:26:25.970Z,12.53
2023-02-03T00:28:53.040Z,16.90
2023-02-03T00:31:22.512Z,12.33
2023-02-03T00:33:54.919Z,16.07
2023-02-03T00:36:23.239Z,15.77
2023-02-03T00:38:50.726Z,15.53
2023-02-03T00:41:18.167Z,16.43
2023-02-03T00:43:45.363Z,13.80
2023-02-03T00:46:12.309Z,14.20
2023-02-03T00:48:39.471Z,12.43
2023-02-03T00:51:06.964Z,13.00
2023-02-03T00:53:34.329Z,14.10
2023-02-03T00:56:01.727Z,12.50
2023-02-03T00:58:28.757Z,13.60
2023-02-03T01:00:57.177Z,12.87
2023-02-03T01:03:25.223Z,13.87
2023-02-03T01:05:52.143Z,11.27
2023-02-03T01:08:19.825Z,15.97
2023-02-03T01:10:46.684Z,20.77
2023-02-03T01:13:13.768Z,15.20
2023-02-03T01:15:48.440Z,13.83
2023-02-03T01:18:15.595Z,13.43
2023-02-03T01:20:44.233Z,13.13
2023-02-03T01:23:11.277Z,21.23
2023-02-03T01:25:38.048Z,10.87
2023-02-03T01:28:06.104Z,12.00
2023-02-03T01:30:33.240Z,13.83
2023-02-03T01:33:00.602Z,16.63
2023-02-03T01:35:27.452Z,15.37
2023-02-03T01:37:54.535Z,16.47
2023-02-03T01:40:21.475Z,13.00
2023-02-03T01:42:48.591Z,12.27
2023-02-03T01:45:15.318Z,13.77
2023-02-03T01:47:50.681Z,12.13
2023-02-03T01:50:20.880Z,10.83
2023-02-03T01:52:53.364Z,12.00
2023-02-03T01:55:25.567Z,11.37
2023-02-03T01:58:03.410Z,14.77
2023-02-03T02:00:31.138Z,15.07
2023-02-03T02:02:59.967Z,11.70
2023-02-03T02:05:32.588Z,14.13
2023-02-03T02:08:02.173Z,13.63
2023-02-03T02:10:31.193Z,11.40
2023-02-03T02:13:02.684Z,15.77
2023-02-03T02:15:44.307Z,16.53
2023-02-03T02:18:27.969Z,13.73
2023-02-03T02:21:06.944Z,13.53
2023-02-03T02:23:37.114Z,13.00
2023-02-03T02:26:25.132Z,11.93
2023-02-03T02:29:04.251Z,11.60
2023-02-03T02:31:56.187Z,16.27
2023-02-03T02:34:46.148Z,13.63
2023-02-03T02:37:37.417Z,13.03
2023-02-03T02:40:09.541Z,13.90
2023-02-03T02:42:57.497Z,13.43
2023-02-03T02:45:30.639Z,10.67
2023-02-03T02:48:05.329Z,14.83
2023-02-03T02:50:38.924Z,13.67
2023-02-03T02:53:08.441Z,16.37
2023-02-03T02:55:40.087Z,12.17
2023-02-03T02:58:11.309Z,21.27
2023-02-03T03:00:41.055Z,13.63
2023-02-03T03:03:27.749Z,16.40
2023-02-03T03:06:03.618Z,14.50
2023-02-03T03:08:47.968Z,15.10
2023-02-03T03:11:15.927Z,20.90
2023-02-03T03:13:48.194Z,18.30
2023-02-03T03:16:18.193Z,16.10
2023-02-03T03:18:53.295Z,22.47
2023-02-03T03:21:27.788Z,16.80
2023-02-03T03:23:59.744Z,18.23
2023-02-03T03:26:35.724Z,19.63
2023-02-03T03:29:24.602Z,19.77
2023-02-03T03:31:53.022Z,16.47
2023-02-03T03:34:20.045Z,18.87
2023-02-03T03:37:16.521Z,17.53
2023-02-03T03:40:00.005Z,18.07
2023-02-03T03:42:48.883Z,17.33
2023-02-03T03:45:34.534Z,16.23
2023-02-03T03:48:12.512Z,15.13
2023-02-03T03:50:49.378Z,20.07
2023-02-03T03:53:18.828Z,17.33
2023-02-03T03:55:50.584Z,16.80
2023-02-03T03:58:24.183Z,20.70
2023-02-03T04:00:54.290Z,13.20
2023-02-03T04:03:25.437Z,17.83
2023-02-03T04:05:53.354Z,16.57
2023-02-03T04:08:20.310Z,36.73
2023-02-03T04:10:47.223Z,21.47
2023-02-03T04:13:15.952Z,26.83
2023-02-03T04:15:42.860Z,20.77
2023-02-03T04:18:12.012Z,17.90
2023-02-03T04:20:38.838Z,19.53
2023-02-03T04:23:06.127Z,33.07
2023-02-03T04:25:32.872Z,30.27
2023-02-03T04:28:00.760Z,40.20
2023-02-03T04:30:28.390Z,32.00
2023-02-03T04:32:55.573Z,27.73
2023-02-03T04:35:22.355Z,24.50
2023-02-03T04:37:49.707Z,20.17
2023-02-03T04:40:16.911Z,20.70
2023-02-03T04:42:43.902Z,39.57
2023-02-03T04:45:12.479Z,19.67
2023-02-03T04:47:40.042Z,26.87
2023-02-03T04:50:07.575Z,27.57
2023-02-03T04:52:34.673Z,23.27
2023-02-03T04:55:01.628Z,16.37
2023-02-03T04:57:28.661Z,23.40
2023-02-03T04:59:55.462Z,18.53
2023-02-03T05:02:23.008Z,18.43
2023-02-03T05:04:49.742Z,15.73
2023-02-03T05:07:16.838Z,23.20
2023-02-03T05:09:43.545Z,17.60
2023-02-03T05:12:10.606Z,18.90
2023-02-03T05:14:37.301Z,18.77
2023-02-03T05:17:04.296Z,19.10
2023-02-03T05:19:31.038Z,22.47
2023-02-03T05:21:58.064Z,21.30
2023-02-03T05:24:24.809Z,18.17
2023-02-03T05:26:52.625Z,17.33
2023-02-03T05:29:19.382Z,23.97
2023-02-03T05:31:46.507Z,17.10
2023-02-03T05:34:13.315Z,18.50
2023-02-03T05:36:40.364Z,16.73
2023-02-03T05:39:07.660Z,16.00
2023-02-03T05:41:52.982Z,17.70
2023-02-03T05:44:35.630Z,18.50
2023-02-03T05:47:02.780Z,19.90
2023-02-03T05:49:29.565Z,17.77
2023-02-03T05:51:57.039Z,16.97
2023-02-03T05:54:24.163Z,12.67
2023-02-03T05:56:51.781Z,20.20
2023-02-03T05:59:18.748Z,17.17
2023-02-03T06:01:45.856Z,14.87
2023-02-03T06:04:12.711Z,16.07
2023-02-03T06:06:39.857Z,20.13
2023-02-03T06:09:08.376Z,23.60
2023-02-03T06:11:36.639Z,26.57
2023-02-03T06:14:04.462Z,23.63
2023-02-03T06:16:31.637Z,28.07
2023-02-03T06:18:59.653Z,24.97
2023-02-03T06:21:27.132Z,25.43
2023-02-03T06:23:54.705Z,26.80
2023-02-03T06:26:21.703Z,24.37
2023-02-03T06:28:48.411Z,24.03
2023-02-03T06:31:15.613Z,33.10
2023-02-03T06:33:42.662Z,27.60
2023-02-03T06:36:10.065Z,27.47
2023-02-03T06:38:36.809Z,27.17
2023-02-03T06:41:04.018Z,26.87
2023-02-03T06:43:30.737Z,28.37
2023-02-03T06:45:57.765Z,47.27
2023-02-03T06:48:24.629Z,48.40
2023-02-03T06:50:51.663Z,43.23
2023-02-03T06:53:24.951Z,47.13
2023-02-03T06:55:52.076Z,33.07
2023-02-03T06:58:18.763Z,29.20
2023-02-03T07:00:45.741Z,28.30
2023-02-03T07:03:12.505Z,31.53
2023-02-03T07:05:40.747Z,27.13
2023-02-03T07:08:07.514Z,30.47
2023-02-03T07:10:34.537Z,61.57
2023-02-03T07:13:05.428Z,28.10
2023-02-03T07:15:32.883Z,39.43
2023-02-03T07:17:59.745Z,23.47
2023-02-03T07:20:28.957Z,27.70
2023-02-03T07:22:57.273Z,21.77
2023-02-03T07:25:25.459Z,28.23
2023-02-03T07:27:52.237Z,27.77
2023-02-03T07:30:19.713Z,27.50
2023-02-03T07:32:50.756Z,25.80
2023-02-03T07:35:18.451Z,24.80
2023-02-03T07:37:45.472Z,48.87
2023-02-03T07:40:13.839Z,26.07
2023-02-03T07:42:48.598Z,27.97
2023-02-03T07:45:17.780Z,25.53
2023-02-03T07:47:44.672Z,21.93
2023-02-03T07:50:12.636Z,22.37
2023-02-03T07:52:39.692Z,27.73
2023-02-03T07:55:07.309Z,22.67
2023-02-03T07:57:34.069Z,31.37
2023-02-03T08:00:01.270Z,32.60
2023-02-03T08:02:28.214Z,25.80
2023-02-03T08:04:58.037Z,25.70
2023-02-03T08:07:24.913Z,32.97
2023-02-03T08:09:51.955Z,38.17
2023-02-03T08:12:18.737Z,29.60
2023-02-03T08:14:45.745Z,31.00
2023-02-03T08:17:12.545Z,27.20
2023-02-03T08:19:39.628Z,29.63
2023-02-03T08:22:06.405Z,45.47
2023-02-03T08:24:33.364Z,26.30
2023-02-03T08:27:01.079Z,25.90
2023-02-03T08:29:28.128Z,36.77
2023-02-03T08:31:55.151Z,32.07
2023-02-03T08:34:22.217Z,33.83
2023-02-03T08:36:48.949Z,30.73
2023-02-03T08:39:16.038Z,38.53
2023-02-03T08:41:42.805Z,44.60
2023-02-03T08:44:09.822Z,44.73
2023-02-03T08:46:37.549Z,48.87
2023-02-03T08:49:04.609Z,47.17
2023-02-03T08:51:31.414Z,39.17
2023-02-03T08:53:58.447Z,42.97
2023-02-03T08:56:26.432Z,80.40
2023-02-03T08:58:55.752Z,44.43
2023-02-03T09:01:23.022Z,51.00
2023-02-03T09:03:50.127Z,41.80
2023-02-03T09:06:17.369Z,29.70
2023-02-03T09:08:46.211Z,24.23
2023-02-03T09:11:16.093Z,32.10
2023-02-03T09:13:46.041Z,36.07
2023-02-03T09:16:14.074Z,31.93
2023-02-03T09:18:41.171Z,33.70
2023-02-03T09:21:20.873Z,31.37
2023-02-03T09:24:03.273Z,37.43
2023-02-03T09:26:30.278Z,38.13
2023-02-03T09:28:57.327Z,47.27
2023-02-03T09:31:24.157Z,53.47
2023-02-03T09:33:51.305Z,55.77
2023-02-03T09:36:18.030Z,64.43
2023-02-03T09:38:45.158Z,67.87
2023-02-03T09:41:21.014Z,66.77
2023-02-03T09:43:51.036Z,69.97
2023-02-03T09:46:22.369Z,63.80
2023-02-03T09:48:54.822Z,66.73
2023-02-03T09:51:32.106Z,62.07
2023-02-03T09:54:13.040Z,56.93
2023-02-03T09:56:40.649Z,58.00
2023-02-03T09:59:09.971Z,52.80
2023-02-03T10:01:59.895Z,50.70
2023-02-03T10:04:40.076Z,52.97
2023-02-03T10:07:25.464Z,49.43
2023-02-03T10:10:18.860Z,56.13
2023-02-03T10:13:00.912Z,58.80
2023-02-03T10:15:56.829Z,54.43
2023-02-03T10:18:29.493Z,63.77
2023-02-03T10:21:02.353Z,56.10
2023-02-03T10:23:39.329Z,52.00
2023-02-03T10:26:12.868Z,43.70
2023-02-03T10:28:48.092Z,37.87
2023-02-03T10:31:20.730Z,39.53
2023-02-03T10:33:57.742Z,49.83
2023-02-03T10:36:48.890Z,42.53
2023-02-03T10:39:43.091Z,43.87
2023-02-03T10:42:11.367Z,54.83
2023-02-03T10:44:42.848Z,54.73
2023-02-03T10:47:21.805Z,78.97
2023-02-03T10:49:51.373Z,39.93
2023-02-03T10:52:47.710Z,32.30
2023-02-03T10:55:26.615Z,25.17
2023-02-03T10:57:54.631Z,27.70
2023-02-03T11:00:29.056Z,35.07
2023-02-03T11:03:06.810Z,25.23
2023-02-03T11:05:34.889Z,29.43
2023-02-03T11:08:02.392Z,58.43
2023-02-03T11:10:36.220Z,37.73
2023-02-03T11:13:23.614Z,32.33
2023-02-03T11:16:03.989Z,34.13
2023-02-03T11:18:46.341Z,59.13
2023-02-03T11:21:17.145Z,28.53
2023-02-03T11:23:55.403Z,27.77
2023-02-03T11:26:49.610Z,34.50
2023-02-03T11:29:25.312Z,31.60
2023-02-03T11:31:54.253Z,36.00
2023-02-03T11:34:29.804Z,47.00
2023-02-03T11:36:57.031Z,30.90
2023-02-03T11:39:30.231Z,32.37
2023-02-03T11:41:57.140Z,32.40
2023-02-03T11:44:29.221Z,42.53
2023-02-03T11:47:01.352Z,30.63
2023-02-03T11:49:49.973Z,34.33
2023-02-03T11:52:47.710Z,41.17
2023-02-03T11:55:44.012Z,48.07
2023-02-03T11:58:29.055Z,45.63
2023-02-03T12:01:10.856Z,34.20
2023-02-03T12:04:16.661Z,29.93
2023-02-03T12:06:58.052Z,28.40
2023-02-03T12:09:27.451Z,30.43
2023-02-03T12:12:22.866Z,31.07
2023-02-03T12:14:55.178Z,23.33
2023-02-03T12:18:03.951Z,26.37
2023-02-03T12:20:41.114Z,36.57
2023-02-03T12:23:14.201Z,24.50
2023-02-03T12:26:10.848Z,43.20
2023-02-03T12:29:03.344Z,28.27
2023-02-03T12:32:05.543Z,26.30
2023-02-03T12:34:48.659Z,21.67
2023-02-03T12:37:49.814Z,22.27
2023-02-03T12:40:22.023Z,21.00
2023-02-03T12:43:21.796Z,17.73
2023-02-03T12:46:02.991Z,17.97
2023-02-03T12:48:56.624Z,14.20
2023-02-03T12:51:43.931Z,19.60
2023-02-03T12:54:45.554Z,19.47
2023-02-03T12:57:43.181Z,13.30
2023-02-03T13:00:32.714Z,13.10
2023-02-03T13:03:21.610Z,15.67
2023-02-03T13:06:01.322Z,18.37
2023-02-03T13:08:36.157Z,18.20
2023-02-03T13:11:19.760Z,12.47
2023-02-03T13:13:55.592Z,23.93
2023-02-03T13:16:35.418Z,20.03
2023-02-03T13:19:09.822Z,34.73
2023-02-03T13:21:37.423Z,35.07
2023-02-03T13:24:05.363Z,32.57
2023-02-03T13:27:05.075Z,29.03
2023-02-03T13:29:58.800Z,21.93
2023-02-03T13:32:55.390Z,24.30
2023-02-03T13:35:34.559Z,27.70
2023-02-03T13:38:34.293Z,20.93
2023-02-03T13:41:14.142Z,75.57
2023-02-03T13:43:46.546Z,43.87
2023-02-03T13:46:36.074Z,50.00
2023-02-03T13:49:06.602Z,35.77
2023-02-03T13:51:37.998Z,90.17
2023-02-03T13:54:12.959Z,74.83
2023-02-03T13:56:40.331Z,41.77
2023-02-03T13:59:12.926Z,32.80
2023-02-03T14:01:41.943Z,34.03
2023-02-03T14:04:24.020Z,52.70
2023-02-03T14:06:53.768Z,28.97
2023-02-03T14:09:20.453Z,27.00
